Time;durP1;ratioP1;P1;durP2;ratioP2;P2;SDS_P1;SDS_P2;PMS_P1;PMS_P2;Temp;Humidity;BMP_temperature;BMP_pressure;BME280_temperature;BME280_humidity;BME280_pressure;Samples;Min_cycle;Max_cycle;Signal;HPM_P1;HPM_P2
2024/03/22 00:02:17;;;;;;;14.10;12.68;;;;;;;;;;5057670;28;20032;-58
2024/03/22 00:04:43;;;;;;;14.90;13.30;;;;;;;;;;5057197;28;20116;-58
2024/03/22 00:07:09;;;;;;;13.55;12.15;;;;;;;;;;5057064;28;20029;-58
2024/03/22 00:09:35;;;;;;;15.48;12.88;;;;;;;;;;5057329;28;20040;-57
2024/03/22 00:12:01;;;;;;;15.10;12.90;;;;;;;;;;5057201;28;20026;-58
2024/03/22 00:14:27;;;;;;;14.95;13.18;;;;;;;;;;5056931;28;20417;-58
2024/03/22 00:16:53;;;;;;;16.42;12.27;;;;;;;;;;5057175;28;20036;-58
2024/03/22 00:19:19;;;;;;;12.88;11.40;;;;;;;;;;5056897;28;20037;-57
2024/03/22 00:21:45;;;;;;;14.13;11.63;;;;;;;;;;5056852;28;20042;-58
2024/03/22 00:24:10;;;;;;;15.38;11.90;;;;;;;;;;5056773;28;20029;-59
2024/03/22 00:26:36;;;;;;;12.35;11.05;;;;;;;;;;5056720;28;20031;-59
2024/03/22 00:29:03;;;;;;;14.88;11.65;;;;;;;;;;5057242;28;20124;-57
2024/03/22 00:31:28;;;;;;;12.73;11.32;;;;;;;;;;5056642;28;20078;-58
2024/03/22 00:33:54;;;;;;;10.85;9.75;;;;;;;;;;5056536;28;20017;-57
2024/03/22 00:36:20;;;;;;;12.48;11.23;;;;;;;;;;5056763;28;20352;-57
2024/03/22 00:38:47;;;;;;;13.27;12.00;;;;;;;;;;5057210;28;20028;-58
2024/03/22 00:41:13;;;;;;;12.93;11.35;;;;;;;;;;5056723;28;20099;-57
2024/03/22 00:43:39;;;;;;;12.65;9.90;;;;;;;;;;5056755;28;20473;-58
2024/03/22 00:46:05;;;;;;;14.30;10.20;;;;;;;;;;5056608;28;20025;-58
2024/03/22 00:48:31;;;;;;;11.80;10.60;;;;;;;;;;5056919;28;20025;-53
2024/03/22 00:50:57;;;;;;;15.18;10.75;;;;;;;;;;5056250;28;20137;-58
2024/03/22 00:53:22;;;;;;;13.00;10.82;;;;;;;;;;5056499;28;20036;-58
2024/03/22 00:55:51;;;;;;;13.73;9.90;;;;;;;;;;5055741;28;20033;-58
2024/03/22 00:58:18;;;;;;;12.38;9.88;;;;;;;;;;5057054;28;20041;-57
2024/03/22 01:00:44;;;;;;;14.43;9.48;;;;;;;;;;5056715;28;20045;-58
2024/03/22 01:03:10;;;;;;;13.30;11.90;;;;;;;;;;5056474;28;20025;-58
2024/03/22 01:05:36;;;;;;;11.30;9.80;;;;;;;;;;5055945;28;20052;-58
2024/03/22 01:08:02;;;;;;;10.38;9.20;;;;;;;;;;5056444;28;20467;-57
2024/03/22 01:10:28;;;;;;;11.27;10.07;;;;;;;;;;5055906;28;20169;-57
2024/03/22 01:12:54;;;;;;;11.55;9.15;;;;;;;;;;5056634;28;20454;-58
2024/03/22 01:15:19;;;;;;;13.35;9.70;;;;;;;;;;5055767;28;20020;-58
2024/03/22 01:17:45;;;;;;;10.65;9.40;;;;;;;;;;5056447;28;20020;-57
2024/03/22 01:20:11;;;;;;;13.63;9.57;;;;;;;;;;5056053;28;20124;-58
2024/03/22 01:22:37;;;;;;;10.05;9.05;;;;;;;;;;5055714;28;20055;-56
2024/03/22 01:25:03;;;;;;;11.20;9.30;;;;;;;;;;5055875;28;20029;-55
2024/03/22 01:27:29;;;;;;;9.88;8.27;;;;;;;;;;5055572;28;20032;-58
2024/03/22 01:29:55;;;;;;;10.02;8.95;;;;;;;;;;5055780;28;20352;-57
2024/03/22 01:32:21;;;;;;;11.77;8.88;;;;;;;;;;5055501;28;20036;-57
2024/03/22 01:34:47;;;;;;;11.43;8.88;;;;;;;;;;5055727;28;20344;-56
2024/03/22 01:37:13;;;;;;;14.00;9.00;;;;;;;;;;5055086;28;20474;-58
2024/03/22 01:39:39;;;;;;;9.52;8.63;;;;;;;;;;5055583;28;20040;-57
2024/03/22 01:42:05;;;;;;;11.00;9.50;;;;;;;;;;5055576;28;20033;-57
2024/03/22 01:44:32;;;;;;;10.10;9.07;;;;;;;;;;5055260;28;20025;-56
2024/03/22 01:46:59;;;;;;;10.55;9.45;;;;;;;;;;5055213;28;20025;-57
2024/03/22 01:49:26;;;;;;;12.32;9.57;;;;;;;;;;5055713;28;20064;-57
2024/03/22 01:51:52;;;;;;;12.05;10.60;;;;;;;;;;5055110;28;20021;-58
2024/03/22 01:54:18;;;;;;;16.48;10.80;;;;;;;;;;5055676;28;20036;-56
2024/03/22 01:56:44;;;;;;;12.10;9.27;;;;;;;;;;5054926;28;20060;-58
2024/03/22 01:59:10;;;;;;;11.38;10.18;;;;;;;;;;5055425;28;20124;-57
2024/03/22 02:01:36;;;;;;;15.75;11.43;;;;;;;;;;5055274;28;20065;-57
2024/03/22 02:04:03;;;;;;;11.50;10.30;;;;;;;;;;5055626;28;20435;-58
2024/03/22 02:06:29;;;;;;;11.68;10.45;;;;;;;;;;5054206;28;20116;-58
2024/03/22 02:08:55;;;;;;;12.55;10.35;;;;;;;;;;5054578;28;20033;-56
2024/03/22 02:11:21;;;;;;;11.25;10.15;;;;;;;;;;5054774;28;20071;-58
2024/03/22 02:13:47;;;;;;;13.43;11.00;;;;;;;;;;5054816;28;20057;-57
2024/03/22 02:16:13;;;;;;;12.23;10.95;;;;;;;;;;5055358;28;20431;-57
2024/03/22 02:18:39;;;;;;;10.88;9.75;;;;;;;;;;5055165;28;20028;-58
2024/03/22 02:21:05;;;;;;;12.23;9.65;;;;;;;;;;5054828;28;20036;-56
2024/03/22 02:23:34;;;;;;;12.93;10.57;;;;;;;;;;5054546;28;20021;-57
2024/03/22 02:26:00;;;;;;;15.07;11.15;;;;;;;;;;5054429;28;20451;-58
2024/03/22 02:28:26;;;;;;;11.50;10.13;;;;;;;;;;5054979;28;20382;-57
2024/03/22 02:30:52;;;;;;;12.75;10.52;;;;;;;;;;5054413;28;20112;-55
2024/03/22 02:33:18;;;;;;;11.07;9.38;;;;;;;;;;5054396;28;20036;-57
2024/03/22 02:35:46;;;;;;;11.32;9.48;;;;;;;;;;5054569;28;20116;-58
2024/03/22 02:38:12;;;;;;;11.25;10.02;;;;;;;;;;5053908;28;20378;-58
2024/03/22 02:40:38;;;;;;;11.68;10.35;;;;;;;;;;5054046;28;20036;-58
2024/03/22 02:43:04;;;;;;;12.75;10.90;;;;;;;;;;5054143;28;20060;-58
2024/03/22 02:45:31;;;;;;;13.52;10.18;;;;;;;;;;5054119;28;20091;-57
2024/03/22 02:47:57;;;;;;;10.65;9.60;;;;;;;;;;5053848;28;20032;-56
2024/03/22 02:50:23;;;;;;;13.52;9.25;;;;;;;;;;5054383;28;20478;-56
2024/03/22 02:52:49;;;;;;;12.55;9.25;;;;;;;;;;5054049;28;20021;-57
2024/03/22 02:55:15;;;;;;;11.20;9.25;;;;;;;;;;5054456;28;20095;-57
2024/03/22 02:57:41;;;;;;;17.00;9.52;;;;;;;;;;5052162;28;20084;-55
2024/03/22 03:00:07;;;;;;;12.57;9.85;;;;;;;;;;5054578;28;20064;-55
2024/03/22 03:02:33;;;;;;;11.43;10.35;;;;;;;;;;5054503;28;20475;-57
2024/03/22 03:04:59;;;;;;;10.80;9.60;;;;;;;;;;5054039;28;20021;-57
2024/03/22 03:07:25;;;;;;;13.85;9.70;;;;;;;;;;5053723;28;20083;-56
2024/03/22 03:09:51;;;;;;;10.60;9.40;;;;;;;;;;5053737;28;20028;-56
2024/03/22 03:12:17;;;;;;;10.90;9.77;;;;;;;;;;5054465;28;20450;-57
2024/03/22 03:14:43;;;;;;;10.52;9.10;;;;;;;;;;5053683;28;20443;-57
2024/03/22 03:17:09;;;;;;;11.65;10.35;;;;;;;;;;5053608;28;20444;-58
2024/03/22 03:19:35;;;;;;;12.65;9.85;;;;;;;;;;5053194;28;20451;-58
2024/03/22 03:22:01;;;;;;;12.13;10.05;;;;;;;;;;5054042;28;20366;-57
2024/03/22 03:24:27;;;;;;;11.40;10.02;;;;;;;;;;5053796;28;20035;-57
2024/03/22 03:26:53;;;;;;;10.52;9.40;;;;;;;;;;5053223;28;20029;-55
2024/03/22 03:29:18;;;;;;;13.48;10.38;;;;;;;;;;5054284;28;20029;-57
2024/03/22 03:31:44;;;;;;;11.05;9.95;;;;;;;;;;5053933;28;20025;-58
2024/03/22 03:34:10;;;;;;;10.65;9.63;;;;;;;;;;5054240;28;20021;-57
2024/03/22 03:36:36;;;;;;;11.48;10.30;;;;;;;;;;5053603;28;20021;-58
2024/03/22 03:39:03;;;;;;;14.75;10.98;;;;;;;;;;5053366;28;20114;-57
2024/03/22 03:41:29;;;;;;;11.48;9.77;;;;;;;;;;5053364;28;20075;-57
2024/03/22 03:43:55;;;;;;;13.45;10.05;;;;;;;;;;5053361;28;20025;-57
2024/03/22 03:46:21;;;;;;;14.20;9.35;;;;;;;;;;5053345;28;20036;-57
2024/03/22 03:48:47;;;;;;;11.18;9.95;;;;;;;;;;5053679;28;20056;-55
2024/03/22 03:51:13;;;;;;;10.73;9.45;;;;;;;;;;5053018;28;20029;-57
2024/03/22 03:53:39;;;;;;;10.73;9.57;;;;;;;;;;5053821;28;20351;-56
2024/03/22 03:56:05;;;;;;;9.98;8.93;;;;;;;;;;5052995;28;20032;-57
2024/03/22 03:58:31;;;;;;;10.55;9.40;;;;;;;;;;5053217;28;20025;-57
2024/03/22 04:00:57;;;;;;;9.63;8.70;;;;;;;;;;5053190;28;20032;-57
2024/03/22 04:03:23;;;;;;;11.85;10.15;;;;;;;;;;5053088;28;20439;-56
2024/03/22 04:05:56;;;;;;;9.70;8.70;;;;;;;;;;5053076;28;20029;-58
2024/03/22 04:08:22;;;;;;;10.65;8.90;;;;;;;;;;5053875;28;20119;-58
2024/03/22 04:10:58;;;;;;;13.40;10.40;;;;;;;;;;5053142;28;20054;-58
2024/03/22 04:13:27;;;;;;;11.90;8.98;;;;;;;;;;5053315;28;20044;-56
2024/03/22 04:15:53;;;;;;;10.52;9.45;;;;;;;;;;5053117;28;20410;-52
2024/03/22 04:18:19;;;;;;;13.90;8.55;;;;;;;;;;5053237;28;20028;-57
2024/03/22 04:20:55;;;;;;;9.27;8.25;;;;;;;;;;5052818;28;20463;-57
2024/03/22 04:23:21;;;;;;;11.00;9.05;;;;;;;;;;5053680;28;20359;-54
2024/03/22 04:25:58;;;;;;;9.40;8.40;;;;;;;;;;5053491;28;20028;-55
2024/03/22 04:28:24;;;;;;;10.85;8.60;;;;;;;;;;5053600;28;20104;-56
2024/03/22 04:31:04;;;;;;;11.13;9.45;;;;;;;;;;5055316;28;20021;-56
2024/03/22 04:33:31;;;;;;;13.27;9.57;;;;;;;;;;5057531;28;20025;-57
2024/03/22 04:35:57;;;;;;;9.90;8.25;;;;;;;;;;5056889;28;20463;-54
2024/03/22 04:38:23;;;;;;;11.60;8.38;;;;;;;;;;5057201;28;20033;-57
2024/03/22 04:40:49;;;;;;;9.35;8.35;;;;;;;;;;5057245;28;20060;-56
2024/03/22 04:43:16;;;;;;;9.10;8.25;;;;;;;;;;5056474;28;20053;-56
2024/03/22 04:45:43;;;;;;;10.35;8.25;;;;;;;;;;5056373;28;20060;-54
2024/03/22 04:48:09;;;;;;;10.75;8.93;;;;;;;;;;5056710;28;20040;-57
2024/03/22 04:50:35;;;;;;;11.35;8.60;;;;;;;;;;5056295;28;20033;-57
2024/03/22 04:53:01;;;;;;;13.15;8.80;;;;;;;;;;5056750;28;20320;-56
2024/03/22 04:55:27;;;;;;;8.50;7.68;;;;;;;;;;5055966;28;20021;-53
2024/03/22 04:57:53;;;;;;;10.60;7.85;;;;;;;;;;5056709;28;20049;-55
2024/03/22 05:00:19;;;;;;;11.50;9.18;;;;;;;;;;5056110;28;20379;-56
2024/03/22 05:02:45;;;;;;;9.32;8.20;;;;;;;;;;5056548;28;20037;-55
2024/03/22 05:05:12;;;;;;;13.18;8.20;;;;;;;;;;5056167;28;20040;-56
2024/03/22 05:07:38;;;;;;;11.20;8.40;;;;;;;;;;5056035;28;20086;-57
2024/03/22 05:10:04;;;;;;;8.75;7.85;;;;;;;;;;5056360;28;20112;-58
2024/03/22 05:12:30;;;;;;;9.00;7.68;;;;;;;;;;5056262;28;20413;-57
2024/03/22 05:14:56;;;;;;;8.90;7.00;;;;;;;;;;5055550;28;20021;-56
2024/03/22 05:17:22;;;;;;;12.05;7.68;;;;;;;;;;5055882;28;20028;-52
2024/03/22 05:19:47;;;;;;;10.88;8.40;;;;;;;;;;5055432;28;20037;-53
2024/03/22 05:22:13;;;;;;;9.60;8.20;;;;;;;;;;5055718;28;20346;-57
2024/03/22 05:24:39;;;;;;;9.13;8.05;;;;;;;;;;5055695;28;20029;-56
2024/03/22 05:27:05;;;;;;;8.00;7.22;;;;;;;;;;5055840;28;20027;-57
2024/03/22 05:29:31;;;;;;;11.43;8.32;;;;;;;;;;5055716;28;20071;-53
2024/03/22 05:31:57;;;;;;;9.35;8.32;;;;;;;;;;5055240;28;20033;-57
2024/03/22 05:34:23;;;;;;;10.73;8.10;;;;;;;;;;5055798;28;20029;-56
2024/03/22 05:36:49;;;;;;;9.15;7.88;;;;;;;;;;5055499;28;20056;-55
2024/03/22 05:39:15;;;;;;;11.95;8.32;;;;;;;;;;5055763;28;20095;-56
2024/03/22 05:41:41;;;;;;;8.25;7.40;;;;;;;;;;5054033;28;20025;-57
2024/03/22 05:44:09;;;;;;;11.15;6.63;;;;;;;;;;5055406;28;20021;-58
2024/03/22 05:46:36;;;;;;;9.90;7.63;;;;;;;;;;5055346;28;20143;-57
2024/03/22 05:49:02;;;;;;;8.77;7.95;;;;;;;;;;5055289;28;20036;-56
2024/03/22 05:51:30;;;;;;;11.40;7.43;;;;;;;;;;5055138;28;20044;-54
2024/03/22 05:53:56;;;;;;;8.60;7.70;;;;;;;;;;5055091;28;20047;-57
2024/03/22 05:56:22;;;;;;;7.93;6.82;;;;;;;;;;5055517;28;20056;-57
2024/03/22 05:58:48;;;;;;;10.02;8.93;;;;;;;;;;5054642;28;20066;-56
2024/03/22 06:01:14;;;;;;;8.55;7.53;;;;;;;;;;5055109;28;20032;-56
2024/03/22 06:03:40;;;;;;;9.55;8.23;;;;;;;;;;5054976;28;20036;-58
2024/03/22 06:06:05;;;;;;;8.10;7.30;;;;;;;;;;5055244;28;20512;-56
2024/03/22 06:08:34;;;;;;;8.52;7.05;;;;;;;;;;5055631;28;20025;-56
2024/03/22 06:11:00;;;;;;;8.77;7.68;;;;;;;;;;5054702;28;20028;-57
2024/03/22 06:13:26;;;;;;;8.93;6.78;;;;;;;;;;5054499;28;20478;-58
2024/03/22 06:15:52;;;;;;;8.20;7.20;;;;;;;;;;5054788;28;20033;-57
2024/03/22 06:18:18;;;;;;;11.77;9.02;;;;;;;;;;5055230;28;20029;-58
2024/03/22 06:20:44;;;;;;;13.20;9.40;;;;;;;;;;5054142;28;20040;-55
2024/03/22 06:23:10;;;;;;;9.32;7.93;;;;;;;;;;5054721;28;20033;-57
2024/03/22 06:25:37;;;;;;;14.02;7.85;;;;;;;;;;5054342;28;20466;-56
2024/03/22 06:28:03;;;;;;;11.40;9.35;;;;;;;;;;5054182;28;20033;-57
2024/03/22 06:30:29;;;;;;;10.60;8.52;;;;;;;;;;5054127;28;20028;-55
2024/03/22 06:32:55;;;;;;;9.18;8.18;;;;;;;;;;5054052;28;20029;-57
2024/03/22 06:35:22;;;;;;;10.40;9.13;;;;;;;;;;5054186;28;20017;-57
2024/03/22 06:37:48;;;;;;;12.63;9.15;;;;;;;;;;5054371;28;20551;-57
2024/03/22 06:40:14;;;;;;;9.95;8.90;;;;;;;;;;5054091;28;20029;-55
2024/03/22 06:42:40;;;;;;;12.07;9.90;;;;;;;;;;5054249;28;20372;-55
2024/03/22 06:45:06;;;;;;;14.98;10.05;;;;;;;;;;5054137;28;20104;-57
2024/03/22 06:47:32;;;;;;;11.68;10.32;;;;;;;;;;5054108;28;20036;-58
2024/03/22 06:49:58;;;;;;;12.90;10.20;;;;;;;;;;5054266;28;20025;-56
2024/03/22 06:52:24;;;;;;;9.55;8.45;;;;;;;;;;5053680;28;20238;-57
2024/03/22 06:54:50;;;;;;;12.15;9.43;;;;;;;;;;5053800;28;20049;-57
2024/03/22 06:57:46;;;;;;;12.35;10.40;;;;;;;;;;5053818;28;20053;-56
2024/03/22 07:00:13;;;;;;;11.27;10.00;;;;;;;;;;5049227;28;20037;-57
2024/03/22 07:02:39;;;;;;;10.48;9.38;;;;;;;;;;5053549;28;20029;-56
2024/03/22 07:05:05;;;;;;;14.13;9.32;;;;;;;;;;5053873;28;20029;-57
2024/03/22 07:07:31;;;;;;;10.52;8.68;;;;;;;;;;5053829;28;20395;-56
2024/03/22 07:09:57;;;;;;;9.48;8.50;;;;;;;;;;5054275;28;20036;-57
2024/03/22 07:12:23;;;;;;;10.65;9.55;;;;;;;;;;5054186;28;20116;-57
2024/03/22 07:14:49;;;;;;;9.95;8.82;;;;;;;;;;5053605;28;20029;-56
2024/03/22 07:17:15;;;;;;;12.80;8.90;;;;;;;;;;5054427;28;20029;-56
2024/03/22 07:19:41;;;;;;;11.73;8.68;;;;;;;;;;5054318;28;20099;-57
2024/03/22 07:22:07;;;;;;;11.70;9.20;;;;;;;;;;5053275;28;20029;-57
2024/03/22 07:24:33;;;;;;;11.15;9.32;;;;;;;;;;5054355;28;20025;-57
2024/03/22 07:26:58;;;;;;;12.15;8.30;;;;;;;;;;5053630;28;20378;-57
2024/03/22 07:29:24;;;;;;;11.30;8.43;;;;;;;;;;5054229;28;20029;-57
2024/03/22 07:31:50;;;;;;;11.15;8.55;;;;;;;;;;5053250;28;20024;-57
2024/03/22 07:34:16;;;;;;;10.25;8.85;;;;;;;;;;5053925;28;20021;-55
2024/03/22 07:36:42;;;;;;;10.05;8.68;;;;;;;;;;5053369;28;20057;-57
2024/03/22 07:39:09;;;;;;;8.55;7.75;;;;;;;;;;5053671;28;20132;-57
2024/03/22 07:41:35;;;;;;;10.43;8.52;;;;;;;;;;5053277;28;20029;-57
2024/03/22 07:44:02;;;;;;;12.00;8.65;;;;;;;;;;5053778;28;20120;-57
2024/03/22 07:46:28;;;;;;;9.77;8.77;;;;;;;;;;5053574;28;20025;-57
2024/03/22 07:48:54;;;;;;;10.32;8.25;;;;;;;;;;5053901;28;20032;-57
2024/03/22 07:51:21;;;;;;;8.40;7.43;;;;;;;;;;5053322;28;20067;-57
2024/03/22 07:53:47;;;;;;;10.93;7.35;;;;;;;;;;5053375;28;20025;-57
2024/03/22 07:56:15;;;;;;;8.80;7.70;;;;;;;;;;5053290;28;20370;-57
2024/03/22 07:58:42;;;;;;;8.63;7.82;;;;;;;;;;5053704;28;20021;-56
2024/03/22 08:01:08;;;;;;;9.35;7.68;;;;;;;;;;5054092;28;20025;-57
2024/03/22 08:03:34;;;;;;;9.40;8.32;;;;;;;;;;5053887;28;20116;-57
2024/03/22 08:06:00;;;;;;;11.90;8.88;;;;;;;;;;5055922;28;20056;-56
2024/03/22 08:08:26;;;;;;;9.25;8.30;;;;;;;;;;5057741;28;20418;-57
2024/03/22 08:10:52;;;;;;;10.05;7.78;;;;;;;;;;5057251;28;20486;-56
2024/03/22 08:13:18;;;;;;;10.82;7.55;;;;;;;;;;5057082;28;20029;-57
2024/03/22 08:15:45;;;;;;;8.18;7.30;;;;;;;;;;5057473;28;20454;-57
2024/03/22 08:18:11;;;;;;;10.98;7.70;;;;;;;;;;5057034;28;20033;-57
2024/03/22 08:20:38;;;;;;;8.50;7.07;;;;;;;;;;5056527;28;20032;-57
2024/03/22 08:23:04;;;;;;;11.27;7.75;;;;;;;;;;5056912;28;20379;-57
2024/03/22 08:25:30;;;;;;;7.70;6.93;;;;;;;;;;5056852;28;20527;-55
2024/03/22 08:27:58;;;;;;;10.20;6.93;;;;;;;;;;5056741;28;20025;-57
2024/03/22 08:30:24;;;;;;;7.78;6.43;;;;;;;;;;5057105;28;20040;-57
2024/03/22 08:32:50;;;;;;;7.85;6.28;;;;;;;;;;5056694;28;20082;-57
2024/03/22 08:35:16;;;;;;;8.48;7.25;;;;;;;;;;5056846;28;20025;-57
2024/03/22 08:37:42;;;;;;;6.93;5.85;;;;;;;;;;5056879;28;20108;-57
2024/03/22 08:40:09;;;;;;;8.02;6.78;;;;;;;;;;5056791;28;20037;-56
2024/03/22 08:42:35;;;;;;;7.70;5.20;;;;;;;;;;5056144;28;20079;-57
2024/03/22 08:45:01;;;;;;;6.95;5.70;;;;;;;;;;5056375;28;20031;-57
2024/03/22 08:47:27;;;;;;;7.65;5.43;;;;;;;;;;5056866;28;20344;-57
2024/03/22 08:49:53;;;;;;;5.97;5.38;;;;;;;;;;5056771;28;20029;-57
2024/03/22 08:52:19;;;;;;;7.72;5.75;;;;;;;;;;5056356;28;20048;-57
2024/03/22 08:54:45;;;;;;;7.88;4.90;;;;;;;;;;5056690;28;20025;-58
2024/03/22 08:57:11;;;;;;;5.53;4.97;;;;;;;;;;5055896;28;20037;-58
2024/03/22 08:59:37;;;;;;;5.65;4.63;;;;;;;;;;5056265;28;20040;-58
2024/03/22 09:02:04;;;;;;;6.72;4.43;;;;;;;;;;5056934;28;20036;-56
2024/03/22 09:04:29;;;;;;;8.38;4.55;;;;;;;;;;5056216;28;20108;-58
2024/03/22 09:06:55;;;;;;;5.25;4.05;;;;;;;;;;5055855;28;20056;-58
2024/03/22 09:09:21;;;;;;;4.57;4.18;;;;;;;;;;5056514;28;20079;-58
2024/03/22 09:11:47;;;;;;;7.07;4.75;;;;;;;;;;5055862;28;20025;-58
2024/03/22 09:14:14;;;;;;;5.20;4.15;;;;;;;;;;5056718;28;20028;-56
2024/03/22 09:16:40;;;;;;;5.30;4.53;;;;;;;;;;5055960;28;20423;-56
2024/03/22 09:19:06;;;;;;;5.72;3.67;;;;;;;;;;5056636;28;20073;-59
2024/03/22 09:21:32;;;;;;;5.13;3.05;;;;;;;;;;5056106;28;20053;-58
2024/03/22 09:23:58;;;;;;;6.65;4.50;;;;;;;;;;5055781;28;20060;-59
2024/03/22 09:26:24;;;;;;;5.07;4.05;;;;;;;;;;5056778;28;20431;-59
2024/03/22 09:28:50;;;;;;;6.38;3.83;;;;;;;;;;5056259;28;20013;-56
2024/03/22 09:31:16;;;;;;;5.32;3.95;;;;;;;;;;5055649;28;20024;-56
2024/03/22 09:33:43;;;;;;;7.10;3.75;;;;;;;;;;5055814;28;20029;-56
2024/03/22 09:36:09;;;;;;;4.50;3.75;;;;;;;;;;5055230;28;20344;-57
2024/03/22 09:38:35;;;;;;;5.50;3.47;;;;;;;;;;5056354;28;20025;-57
2024/03/22 09:41:01;;;;;;;6.32;3.40;;;;;;;;;;5055825;28;20039;-57
2024/03/22 09:43:28;;;;;;;4.05;2.63;;;;;;;;;;5055887;28;20032;-57
2024/03/22 09:45:55;;;;;;;4.13;2.80;;;;;;;;;;5055369;28;20382;-57
2024/03/22 09:48:22;;;;;;;4.97;2.63;;;;;;;;;;5055885;28;20021;-57
2024/03/22 09:50:49;;;;;;;3.75;2.17;;;;;;;;;;5055740;28;20452;-56
2024/03/22 09:53:18;;;;;;;3.80;2.15;;;;;;;;;;5055187;28;20086;-57
2024/03/22 09:55:45;;;;;;;5.05;2.28;;;;;;;;;;5054925;28;20018;-58
2024/03/22 09:58:11;;;;;;;4.25;2.83;;;;;;;;;;5055797;28;20092;-57
2024/03/22 10:00:37;;;;;;;3.58;2.50;;;;;;;;;;5055770;28;20416;-57
2024/03/22 10:03:04;;;;;;;3.85;2.67;;;;;;;;;;5054810;28;20032;-57
2024/03/22 10:05:30;;;;;;;4.82;3.42;;;;;;;;;;5055534;28;20021;-58
2024/03/22 10:07:56;;;;;;;4.50;2.75;;;;;;;;;;5054931;28;20116;-58
2024/03/22 10:10:22;;;;;;;6.20;2.63;;;;;;;;;;5054619;28;20071;-58
2024/03/22 10:12:48;;;;;;;3.97;3.03;;;;;;;;;;5054833;28;20467;-57
2024/03/22 10:15:15;;;;;;;4.15;2.67;;;;;;;;;;5055378;28;20021;-56
2024/03/22 10:17:41;;;;;;;5.28;3.28;;;;;;;;;;5054990;28;20422;-58
2024/03/22 10:20:13;;;;;;;5.03;3.50;;;;;;;;;;5055000;28;20530;-57
2024/03/22 10:22:42;;;;;;;3.70;2.53;;;;;;;;;;5054677;28;20453;-57
2024/03/22 10:25:08;;;;;;;4.20;2.95;;;;;;;;;;5054950;28;20036;-57
2024/03/22 10:27:34;;;;;;;3.28;2.50;;;;;;;;;;5054302;28;20013;-57
2024/03/22 10:30:00;;;;;;;3.83;2.65;;;;;;;;;;5054840;28;20332;-59
2024/03/22 10:32:25;;;;;;;4.10;2.58;;;;;;;;;;5055171;28;20017;-58
2024/03/22 10:34:52;;;;;;;4.18;2.50;;;;;;;;;;5054489;28;20033;-61
2024/03/22 10:37:17;;;;;;;4.10;2.85;;;;;;;;;;5054057;28;20028;-58
2024/03/22 10:39:46;;;;;;;4.18;2.78;;;;;;;;;;5054999;28;20375;-58
2024/03/22 10:42:12;;;;;;;4.45;3.28;;;;;;;;;;5054342;28;20367;-58
2024/03/22 10:44:39;;;;;;;3.60;2.88;;;;;;;;;;5054646;28;20024;-58
2024/03/22 10:47:06;;;;;;;4.65;2.50;;;;;;;;;;5053946;28;20031;-58
2024/03/22 10:49:33;;;;;;;4.32;2.97;;;;;;;;;;5054525;28;20035;-58
2024/03/22 10:52:01;;;;;;;4.20;3.13;;;;;;;;;;5054140;28;20025;-57
2024/03/22 10:54:34;;;;;;;5.00;3.13;;;;;;;;;;5053807;28;20025;-58
2024/03/22 10:57:00;;;;;;;3.33;2.15;;;;;;;;;;5054059;28;20045;-58
2024/03/22 10:59:26;;;;;;;3.83;2.70;;;;;;;;;;5053781;28;20029;-58
2024/03/22 11:01:53;;;;;;;3.33;2.72;;;;;;;;;;5053939;28;20032;-57
2024/03/22 11:04:26;;;;;;;4.45;2.95;;;;;;;;;;5053849;28;20032;-57
2024/03/22 11:06:52;;;;;;;4.15;3.30;;;;;;;;;;5054747;28;20174;-58
2024/03/22 11:09:22;;;;;;;3.90;2.83;;;;;;;;;;5054241;28;20029;-58
2024/03/22 11:11:48;;;;;;;3.92;2.70;;;;;;;;;;5053887;28;20033;-58
2024/03/22 11:14:14;;;;;;;5.57;2.92;;;;;;;;;;5053829;28;20083;-57
2024/03/22 11:16:44;;;;;;;4.55;2.53;;;;;;;;;;5053838;28;20020;-58
2024/03/22 11:19:10;;;;;;;3.97;2.90;;;;;;;;;;5054028;28;20128;-58
2024/03/22 11:21:36;;;;;;;4.50;3.20;;;;;;;;;;5053832;28;20064;-58
2024/03/22 11:24:02;;;;;;;5.28;2.97;;;;;;;;;;5053628;28;20021;-58
2024/03/22 11:26:28;;;;;;;5.80;3.72;;;;;;;;;;5053212;28;20021;-58
2024/03/22 11:28:54;;;;;;;4.20;2.83;;;;;;;;;;5054190;28;20116;-58
2024/03/22 11:31:24;;;;;;;5.05;3.35;;;;;;;;;;5053581;28;20017;-58
2024/03/22 11:33:51;;;;;;;4.97;3.00;;;;;;;;;;5053950;28;20025;-58
2024/03/22 11:36:16;;;;;;;8.20;3.45;;;;;;;;;;5053438;28;20056;-58
2024/03/22 11:38:43;;;;;;;4.30;3.22;;;;;;;;;;5053608;28;20029;-58
2024/03/22 11:41:09;;;;;;;4.65;3.75;;;;;;;;;;5052547;28;20460;-58
2024/03/22 11:43:35;;;;;;;5.80;3.53;;;;;;;;;;5053324;28;20467;-58
2024/03/22 11:46:01;;;;;;;5.43;4.00;;;;;;;;;;5053716;28;20028;-58
2024/03/22 11:48:27;;;;;;;5.90;3.90;;;;;;;;;;5053831;28;20112;-58
2024/03/22 11:50:55;;;;;;;4.75;3.15;;;;;;;;;;5053393;28;20028;-58
2024/03/22 11:53:21;;;;;;;3.65;2.85;;;;;;;;;;5053413;28;20118;-59
2024/03/22 11:55:49;;;;;;;5.25;3.22;;;;;;;;;;5053594;28;20052;-58
2024/03/22 11:58:15;;;;;;;4.70;3.30;;;;;;;;;;5054509;28;20439;-59
2024/03/22 12:00:42;;;;;;;3.35;2.63;;;;;;;;;;5052916;28;20028;-59
2024/03/22 12:03:09;;;;;;;4.55;2.40;;;;;;;;;;5053576;28;20521;-58
2024/03/22 12:05:35;;;;;;;4.05;2.33;;;;;;;;;;5053263;28;20471;-59
2024/03/22 12:08:02;;;;;;;3.22;1.85;;;;;;;;;;5053110;28;20107;-58
2024/03/22 12:10:28;;;;;;;2.75;1.80;;;;;;;;;;5053803;28;20116;-58
2024/03/22 12:12:54;;;;;;;3.38;1.85;;;;;;;;;;5053469;28;20420;-58
2024/03/22 12:15:20;;;;;;;4.30;2.17;;;;;;;;;;5053099;28;20036;-58
2024/03/22 12:17:45;;;;;;;3.47;2.08;;;;;;;;;;5053172;28;20099;-58
2024/03/22 12:20:11;;;;;;;3.10;1.98;;;;;;;;;;5053644;28;20079;-58
2024/03/22 12:22:37;;;;;;;2.65;1.52;;;;;;;;;;5053104;28;20142;-58
2024/03/22 12:25:05;;;;;;;4.25;1.77;;;;;;;;;;5053502;28;20025;-58
2024/03/22 12:27:31;;;;;;;1.67;1.10;;;;;;;;;;5051712;28;20021;-58
2024/03/22 12:29:57;;;;;;;5.68;1.77;;;;;;;;;;5053577;28;20028;-59
2024/03/22 12:32:23;;;;;;;3.72;1.70;;;;;;;;;;5052895;28;20151;-59
2024/03/22 12:34:49;;;;;;;3.50;1.73;;;;;;;;;;5053759;28;20024;-59
2024/03/22 12:37:15;;;;;;;3.60;1.88;;;;;;;;;;5052637;28;20029;-59
2024/03/22 12:39:41;;;;;;;1.98;1.33;;;;;;;;;;5053350;28;20406;-59
2024/03/22 12:42:07;;;;;;;1.98;1.15;;;;;;;;;;5053099;28;20082;-58
2024/03/22 12:44:33;;;;;;;2.03;1.42;;;;;;;;;;5053478;28;20147;-58
2024/03/22 12:46:59;;;;;;;2.67;1.55;;;;;;;;;;5052894;28;20047;-58
2024/03/22 12:49:25;;;;;;;2.55;1.30;;;;;;;;;;5053697;28;20477;-58
2024/03/22 12:51:51;;;;;;;2.42;1.60;;;;;;;;;;5055532;28;20350;-58
2024/03/22 12:54:18;;;;;;;3.58;1.73;;;;;;;;;;5056942;28;20025;-59
2024/03/22 12:56:44;;;;;;;3.15;1.75;;;;;;;;;;5056439;28;20083;-58
2024/03/22 12:59:10;;;;;;;2.78;1.65;;;;;;;;;;5056013;28;20033;-58
2024/03/22 13:01:36;;;;;;;5.35;2.42;;;;;;;;;;5055941;28;20017;-58
2024/03/22 13:04:02;;;;;;;4.55;2.25;;;;;;;;;;5056695;28;20145;-58
2024/03/22 13:06:28;;;;;;;2.38;1.58;;;;;;;;;;5056073;28;20577;-59
2024/03/22 13:08:54;;;;;;;4.00;1.92;;;;;;;;;;5056689;28;20167;-58
2024/03/22 13:11:20;;;;;;;3.28;2.17;;;;;;;;;;5056218;28;20359;-58
2024/03/22 13:13:46;;;;;;;3.75;2.72;;;;;;;;;;5055928;28;20025;-58
2024/03/22 13:16:14;;;;;;;5.90;3.60;;;;;;;;;;5055998;28;20057;-58
2024/03/22 13:18:40;;;;;;;5.35;2.83;;;;;;;;;;5056338;28;20548;-59
2024/03/22 13:21:06;;;;;;;5.93;2.85;;;;;;;;;;5056322;28;20060;-58
2024/03/22 13:23:32;;;;;;;3.90;2.70;;;;;;;;;;5056561;28;20025;-58
2024/03/22 13:26:03;;;;;;;3.88;2.53;;;;;;;;;;5055761;28;20032;-59
2024/03/22 13:28:29;;;;;;;;;;;;;;;;;;5056811;28;20067;-58
2024/03/22 13:31:05;;;;;;;3.85;2.58;;;;;;;;;;5055695;28;19905;-59
2024/03/22 13:33:31;;;;;;;4.15;2.70;;;;;;;;;;5056231;28;20360;-58
2024/03/22 13:35:57;;;;;;;6.50;2.80;;;;;;;;;;5055500;28;20028;-58
2024/03/22 13:38:23;;;;;;;3.78;2.35;;;;;;;;;;5055934;28;20363;-58
2024/03/22 13:41:00;;;;;;;4.32;2.53;;;;;;;;;;5055230;28;20482;-58
2024/03/22 13:43:27;;;;;;;3.47;2.72;;;;;;;;;;5056053;28;20025;-58
2024/03/22 13:45:56;;;;;;;7.15;3.97;;;;;;;;;;5055388;28;20382;-58
2024/03/22 13:48:26;;;;;;;5.40;3.00;;;;;;;;;;5055972;28;20477;-58
2024/03/22 13:50:53;;;;;;;6.15;2.72;;;;;;;;;;5055364;28;20786;-58
2024/03/22 13:53:21;;;;;;;3.33;2.25;;;;;;;;;;5055358;28;20414;-59
2024/03/22 13:55:47;;;;;;;3.92;2.40;;;;;;;;;;5055300;28;20463;-59
2024/03/22 13:58:13;;;;;;;4.75;2.80;;;;;;;;;;5056181;28;20056;-58
2024/03/22 14:00:39;;;;;;;4.07;2.85;;;;;;;;;;5054754;28;20108;-59
2024/03/22 14:03:06;;;;;;;2.53;1.52;;;;;;;;;;5054171;28;20074;-58
2024/03/22 14:05:32;;;;;;;4.63;2.10;;;;;;;;;;5055060;28;20028;-58
2024/03/22 14:08:00;;;;;;;6.68;2.88;;;;;;;;;;5054955;28;20031;-58
2024/03/22 14:10:27;;;;;;;3.10;2.25;;;;;;;;;;5055198;28;20060;-59
2024/03/22 14:12:53;;;;;;;3.95;2.33;;;;;;;;;;5055098;28;20371;-59
2024/03/22 14:15:19;;;;;;;3.42;2.38;;;;;;;;;;5054481;28;20032;-58
2024/03/22 14:17:46;;;;;;;4.38;2.20;;;;;;;;;;5054585;28;20036;-58
2024/03/22 14:20:12;;;;;;;2.65;1.92;;;;;;;;;;5055010;28;20064;-58
2024/03/22 14:22:40;;;;;;;3.83;2.20;;;;;;;;;;5054581;28;20159;-58
2024/03/22 14:25:06;;;;;;;3.42;2.70;;;;;;;;;;5054496;28;20028;-58
2024/03/22 14:27:32;;;;;;;3.13;2.40;;;;;;;;;;5054599;28;20025;-58
2024/03/22 14:29:58;;;;;;;3.50;2.53;;;;;;;;;;5055302;28;20052;-58
2024/03/22 14:32:24;;;;;;;6.15;2.50;;;;;;;;;;5054666;28;20044;-59